createdAt,value
2023-01-29T00:02:04.776Z,101440.84
2023-01-29T00:04:35.046Z,101443.53
2023-01-29T00:07:05.162Z,101408.50
2023-01-29T00:09:35.191Z,101420.97
2023-01-29T00:12:09.079Z,101450.28
2023-01-29T00:14:39.349Z,101445.84
2023-01-29T00:17:10.547Z,101451.28
2023-01-29T00:19:40.689Z,101448.50
2023-01-29T00:22:10.851Z,101446.41
2023-01-29T00:24:40.935Z,101420.81
2023-01-29T00:27:14.057Z,101443.72
2023-01-29T00:30:04.946Z,101455.09
2023-01-29T00:32:35.505Z,101457.13
2023-01-29T00:35:05.694Z,101467.28
2023-01-29T00:37:35.810Z,101464.38
2023-01-29T00:40:06.233Z,101471.56
2023-01-29T00:42:51.247Z,101434.56
2023-01-29T00:45:21.600Z,101461.56
2023-01-29T00:47:51.766Z,101471.44
2023-01-29T00:50:22.342Z,101459.84
2023-01-29T00:52:54.755Z,101446.53
2023-01-29T00:55:25.487Z,101472.56
2023-01-29T00:57:58.440Z,101470.53
2023-01-29T01:00:28.666Z,101473.81
2023-01-29T01:03:08.495Z,101476.94
2023-01-29T01:05:39.298Z,101477.59
2023-01-29T01:08:30.587Z,101452.56
2023-01-29T01:11:02.182Z,101476.34
2023-01-29T01:13:35.556Z,101474.09
2023-01-29T01:16:05.715Z,101476.47
2023-01-29T01:18:36.722Z,101483.19
2023-01-29T01:21:06.856Z,101487.06
2023-01-29T01:23:37.505Z,101461.50
2023-01-29T01:26:11.608Z,101486.84
2023-01-29T01:28:44.254Z,101487.63
2023-01-29T01:31:15.764Z,101489.44
2023-01-29T01:33:46.064Z,101482.50
2023-01-29T01:36:16.037Z,101473.56
2023-01-29T01:38:47.504Z,101440.28
2023-01-29T01:41:20.626Z,101481.63
2023-01-29T01:43:59.018Z,101479.94
2023-01-29T01:46:33.894Z,101483.75
2023-01-29T01:49:09.685Z,101450.22
2023-01-29T01:51:44.739Z,101477.47
2023-01-29T01:54:17.182Z,101466.84
2023-01-29T01:56:54.426Z,101484.84
2023-01-29T01:59:27.495Z,101448.41
2023-01-29T02:01:58.462Z,101480.56
2023-01-29T02:04:42.420Z,101478.34
2023-01-29T02:07:28.256Z,101481.25
2023-01-29T02:10:04.731Z,101480.75
2023-01-29T02:12:36.019Z,101483.19
2023-01-29T02:15:10.155Z,101488.91
2023-01-29T02:17:40.414Z,101489.31
2023-01-29T02:20:20.935Z,101493.72
2023-01-29T02:23:23.456Z,101478.69
2023-01-29T02:26:18.613Z,101498.25
2023-01-29T02:28:57.832Z,101496.63
2023-01-29T02:31:35.907Z,101497.06
2023-01-29T02:34:14.920Z,101495.16
2023-01-29T02:36:50.032Z,101496.00
2023-01-29T02:39:27.967Z,101497.44
2023-01-29T02:42:05.013Z,101472.06
2023-01-29T02:44:43.597Z,101493.72
2023-01-29T02:47:21.970Z,101504.78
2023-01-29T02:50:01.005Z,101469.16
2023-01-29T02:52:43.465Z,101459.34
2023-01-29T02:55:19.788Z,101488.06
2023-01-29T02:57:52.651Z,101502.78
2023-01-29T03:00:28.791Z,101501.94
2023-01-29T03:03:03.916Z,101497.25
2023-01-29T03:05:43.575Z,101500.03
2023-01-29T03:08:18.710Z,101497.06
2023-01-29T03:10:54.205Z,101490.97
2023-01-29T03:13:32.221Z,101505.63
2023-01-29T03:16:09.280Z,101503.09
2023-01-29T03:18:47.121Z,101498.25
2023-01-29T03:21:35.670Z,101502.34
2023-01-29T03:24:19.487Z,101504.31
2023-01-29T03:27:03.986Z,101505.19
2023-01-29T03:29:52.956Z,101510.47
2023-01-29T03:32:30.151Z,101504.31
2023-01-29T03:35:06.772Z,101517.66
2023-01-29T03:37:40.935Z,101516.31
2023-01-29T03:40:15.467Z,101517.28
2023-01-29T03:43:02.997Z,101514.75
2023-01-29T03:45:43.194Z,101517.84
2023-01-29T03:48:26.706Z,101475.09
2023-01-29T03:51:05.177Z,101520.19
2023-01-29T03:53:45.387Z,101517.28
2023-01-29T03:56:29.861Z,101519.28
2023-01-29T03:59:05.921Z,101517.72
2023-01-29T04:01:59.507Z,101509.59
2023-01-29T04:04:36.591Z,101519.97
2023-01-29T04:07:13.784Z,101526.16
2023-01-29T04:09:49.512Z,101516.53
2023-01-29T04:12:26.207Z,101530.41
2023-01-29T04:14:57.496Z,101494.59
2023-01-29T04:17:34.334Z,101526.41
2023-01-29T04:20:18.091Z,101526.03
2023-01-29T04:22:50.286Z,101532.75
2023-01-29T04:25:26.830Z,101530.13
2023-01-29T04:28:08.818Z,101531.31
2023-01-29T04:30:49.078Z,101469.94
2023-01-29T04:33:31.317Z,101522.13
2023-01-29T04:36:27.043Z,101528.47
2023-01-29T04:39:07.408Z,101520.53
2023-01-29T04:41:45.545Z,101530.53
2023-01-29T04:44:21.791Z,101500.75
2023-01-29T04:47:00.667Z,101538.66
2023-01-29T04:49:37.484Z,101525.59
2023-01-29T04:52:15.555Z,101534.78
2023-01-29T04:55:02.703Z,101542.72
2023-01-29T04:57:39.039Z,101546.78
2023-01-29T05:00:13.342Z,101553.31
2023-01-29T05:02:46.596Z,101555.13
2023-01-29T05:05:19.598Z,101554.69
2023-01-29T05:07:52.904Z,101555.03
2023-01-29T05:10:25.922Z,101560.34
2023-01-29T05:13:01.774Z,101545.59
2023-01-29T05:15:36.730Z,101562.38
2023-01-29T05:18:09.179Z,101554.44
2023-01-29T05:20:42.048Z,101569.78
2023-01-29T05:23:19.091Z,101566.31
2023-01-29T05:25:50.220Z,101553.31
2023-01-29T05:28:18.062Z,101546.75
2023-01-29T05:30:50.179Z,101570.44
2023-01-29T05:33:22.413Z,101579.00
2023-01-29T05:35:52.940Z,101583.91
2023-01-29T05:38:26.415Z,101581.72
2023-01-29T05:40:57.014Z,101585.53
2023-01-29T05:43:28.457Z,101582.63
2023-01-29T05:46:00.171Z,101585.66
2023-01-29T05:48:32.580Z,101588.31
2023-01-29T05:51:03.679Z,101587.88
2023-01-29T05:53:36.414Z,101588.81
2023-01-29T05:56:07.760Z,101585.22
2023-01-29T05:58:37.854Z,101589.56
2023-01-29T06:01:16.681Z,101587.19
2023-01-29T06:03:47.700Z,101582.28
2023-01-29T06:06:17.900Z,101591.09
2023-01-29T06:08:50.596Z,101592.34
2023-01-29T06:11:21.787Z,101564.25
2023-01-29T06:13:51.776Z,101594.47
2023-01-29T06:16:21.843Z,101598.22
2023-01-29T06:18:51.829Z,101597.78
2023-01-29T06:21:21.902Z,101604.72
2023-01-29T06:23:55.702Z,101597.38
2023-01-29T06:26:25.883Z,101614.03
2023-01-29T06:28:55.960Z,101613.59
2023-01-29T06:31:37.771Z,101614.03
2023-01-29T06:34:09.378Z,101613.22
2023-01-29T06:36:41.731Z,101616.94
2023-01-29T06:39:15.357Z,101628.00
2023-01-29T06:41:45.576Z,101629.28
2023-01-29T06:44:15.905Z,101629.66
2023-01-29T06:46:50.892Z,101632.31
2023-01-29T06:49:21.335Z,101647.88
2023-01-29T06:51:51.407Z,101643.59
2023-01-29T06:54:24.334Z,101630.84
2023-01-29T06:56:56.445Z,101650.06
2023-01-29T06:59:26.583Z,101659.25
2023-01-29T07:01:56.628Z,101656.25
2023-01-29T07:04:27.273Z,101658.09
2023-01-29T07:06:57.335Z,101653.09
2023-01-29T07:09:30.045Z,101664.06
2023-01-29T07:12:00.109Z,101671.25
2023-01-29T07:14:30.327Z,101657.50
2023-01-29T07:17:00.970Z,101661.16
2023-01-29T07:19:31.460Z,101666.19
2023-01-29T07:22:02.661Z,101665.84
2023-01-29T07:24:35.762Z,101660.34
2023-01-29T07:27:05.850Z,101650.41
2023-01-29T07:29:38.389Z,101664.31
2023-01-29T07:32:09.294Z,101661.22
2023-01-29T07:34:39.555Z,101639.34
2023-01-29T07:37:10.233Z,101676.16
2023-01-29T07:39:43.128Z,101669.78
2023-01-29T07:42:13.291Z,101658.75
2023-01-29T07:44:43.269Z,101671.88
2023-01-29T07:47:15.739Z,101671.69
2023-01-29T07:49:46.655Z,101667.09
2023-01-29T07:52:16.779Z,101673.94
2023-01-29T07:54:49.515Z,101646.53
2023-01-29T07:57:19.514Z,101671.56
2023-01-29T07:59:49.675Z,101679.94
2023-01-29T08:02:20.079Z,101663.63
2023-01-29T08:04:50.122Z,101684.69
2023-01-29T08:07:20.212Z,101686.38
2023-01-29T08:09:53.621Z,101675.78
2023-01-29T08:12:23.707Z,101680.81
2023-01-29T08:14:53.734Z,101664.91
2023-01-29T08:17:23.952Z,101684.34
2023-01-29T08:19:54.087Z,101690.13
2023-01-29T08:22:24.124Z,101676.63
2023-01-29T08:25:06.350Z,101699.97
2023-01-29T08:27:38.559Z,101661.50
2023-01-29T08:30:10.278Z,101702.69
2023-01-29T08:32:40.564Z,101707.25
2023-01-29T08:35:11.568Z,101703.63
2023-01-29T08:37:41.841Z,101688.28
2023-01-29T08:40:15.632Z,101677.88
2023-01-29T08:42:45.931Z,101709.31
2023-01-29T08:45:16.009Z,101716.06
2023-01-29T08:47:49.130Z,101713.69
2023-01-29T08:50:20.307Z,101726.66
2023-01-29T08:52:50.897Z,101720.47
2023-01-29T08:55:23.786Z,101720.53
2023-01-29T08:57:53.830Z,101713.69
2023-01-29T09:00:24.869Z,101719.16
2023-01-29T09:02:55.272Z,101714.84
2023-01-29T09:05:25.593Z,101714.13
2023-01-29T09:07:55.898Z,101708.00
2023-01-29T09:10:29.224Z,101714.78
2023-01-29T09:12:59.487Z,101702.66
2023-01-29T09:15:29.614Z,101693.88
2023-01-29T09:17:59.737Z,101713.69
2023-01-29T09:20:29.778Z,101709.00
2023-01-29T09:22:59.966Z,101665.88
2023-01-29T09:25:32.932Z,101698.72
2023-01-29T09:28:03.109Z,101714.19
2023-01-29T09:30:34.891Z,101696.22
2023-01-29T09:33:07.251Z,101710.81
2023-01-29T09:35:39.042Z,101709.31
2023-01-29T09:38:09.312Z,101714.72
2023-01-29T09:40:52.209Z,101703.56
2023-01-29T09:43:27.677Z,101684.84
2023-01-29T09:46:01.290Z,101699.44
2023-01-29T09:48:35.222Z,101700.38
2023-01-29T09:51:13.645Z,101697.50
2023-01-29T09:53:53.346Z,101694.91
2023-01-29T09:56:29.213Z,101706.03
2023-01-29T09:59:02.053Z,101706.75
2023-01-29T10:01:40.614Z,101701.28
2023-01-29T10:04:34.469Z,101664.25
2023-01-29T10:07:33.019Z,101690.91
2023-01-29T10:10:32.727Z,101689.22
2023-01-29T10:13:14.928Z,101691.84
2023-01-29T10:16:02.288Z,101632.31
2023-01-29T10:19:04.597Z,101690.03
2023-01-29T10:21:50.479Z,101685.00
2023-01-29T10:24:29.273Z,101676.91
2023-01-29T10:27:00.224Z,101672.13
2023-01-29T10:29:35.263Z,101676.03
2023-01-29T10:32:07.853Z,101676.34
2023-01-29T10:34:44.356Z,101673.69
2023-01-29T10:37:19.685Z,101676.59
2023-01-29T10:39:50.033Z,101667.56
2023-01-29T10:42:34.283Z,101660.19
2023-01-29T10:45:20.306Z,101670.09
2023-01-29T10:48:10.391Z,101657.81
2023-01-29T10:50:50.596Z,101663.34
2023-01-29T10:53:35.243Z,101665.84
2023-01-29T10:56:22.980Z,101637.91
2023-01-29T10:58:57.272Z,101651.47
2023-01-29T11:01:30.089Z,101653.91
2023-01-29T11:04:03.389Z,101649.03
2023-01-29T11:06:36.096Z,101650.25
2023-01-29T11:09:12.298Z,101642.91
2023-01-29T11:11:46.359Z,101635.88
2023-01-29T11:14:24.446Z,101638.50
2023-01-29T11:16:57.632Z,101617.38
2023-01-29T11:19:40.887Z,101648.44
2023-01-29T11:22:17.517Z,101650.72
2023-01-29T11:24:47.841Z,101626.78
2023-01-29T11:27:23.653Z,101644.78
2023-01-29T11:29:55.183Z,101638.91
2023-01-29T11:32:33.450Z,101644.25
2023-01-29T11:35:06.090Z,101638.91
2023-01-29T11:37:39.369Z,101645.50
2023-01-29T11:40:38.971Z,101644.97
2023-01-29T11:43:30.838Z,101640.91
2023-01-29T11:46:03.929Z,101644.03
2023-01-29T11:48:44.717Z,101612.13
2023-01-29T11:51:24.675Z,101648.84
2023-01-29T11:53:59.080Z,101654.81
2023-01-29T11:56:32.940Z,101617.97
2023-01-29T11:59:05.584Z,101646.59
2023-01-29T12:01:39.225Z,101643.72
2023-01-29T12:04:22.567Z,101642.53
2023-01-29T12:06:55.369Z,101641.97
2023-01-29T12:09:29.544Z,101641.59
2023-01-29T12:12:21.195Z,101646.03
2023-01-29T12:15:07.145Z,101642.56
2023-01-29T12:17:41.181Z,101625.47
2023-01-29T12:20:20.530Z,101645.03
2023-01-29T12:22:54.726Z,101637.03
2023-01-29T12:25:33.713Z,101630.78
2023-01-29T12:28:10.294Z,101638.13
2023-01-29T12:30:52.308Z,101642.63
2023-01-29T12:33:32.417Z,101646.81
2023-01-29T12:36:12.265Z,101634.44
2023-01-29T12:38:42.338Z,101628.13
2023-01-29T12:41:31.508Z,101634.69
2023-01-29T12:44:06.890Z,101638.56
2023-01-29T12:46:43.084Z,101585.94
2023-01-29T12:49:19.546Z,101629.53
2023-01-29T12:51:59.982Z,101640.59
2023-01-29T12:54:40.822Z,101637.50
2023-01-29T12:57:21.849Z,101640.81
2023-01-29T12:59:54.503Z,101637.78
2023-01-29T13:02:35.675Z,101636.75
2023-01-29T13:05:12.957Z,101637.59
2023-01-29T13:07:51.060Z,101646.72
2023-01-29T13:10:26.622Z,101641.22
2023-01-29T13:13:03.875Z,101644.97
2023-01-29T13:15:38.759Z,101635.59
2023-01-29T13:18:39.599Z,101638.34
2023-01-29T13:21:15.356Z,101641.00
2023-01-29T13:23:51.113Z,101632.22
2023-01-29T13:26:22.580Z,101607.28
2023-01-29T13:28:54.297Z,101622.22
2023-01-29T13:31:31.814Z,101628.84
2023-01-29T13:34:16.700Z,101634.78
2023-01-29T13:36:48.739Z,101626.66
2023-01-29T13:39:27.403Z,101629.31
2023-01-29T13:41:59.013Z,101628.31
2023-01-29T13:44:31.562Z,101628.13
2023-01-29T13:47:03.718Z,101617.09
2023-01-29T13:49:38.606Z,101629.72
2023-01-29T13:52:24.572Z,101626.47
2023-01-29T13:55:02.047Z,101639.75
2023-01-29T13:57:57.406Z,101638.34
2023-01-29T14:01:02.633Z,101640.72
2023-01-29T14:04:05.584Z,101635.91
2023-01-29T14:06:49.575Z,101634.47
2023-01-29T14:09:35.475Z,101641.63
2023-01-29T14:12:40.348Z,101635.66
2023-01-29T14:15:35.661Z,101651.41
2023-01-29T14:18:18.640Z,101653.59
2023-01-29T14:21:24.095Z,101656.88
2023-01-29T14:23:55.721Z,101663.78
2023-01-29T14:26:33.771Z,101654.66
2023-01-29T14:29:32.531Z,101659.06
2023-01-29T14:32:15.420Z,101652.19
2023-01-29T14:34:48.599Z,101640.34
2023-01-29T14:37:25.374Z,101639.72
2023-01-29T14:39:57.827Z,101652.16
2023-01-29T14:42:31.783Z,101650.13
2023-01-29T14:45:12.523Z,101635.44
2023-01-29T14:48:06.433Z,101627.16
2023-01-29T14:50:50.034Z,101658.28
2023-01-29T14:53:33.086Z,101649.69
2023-01-29T14:56:07.155Z,101644.00
2023-01-29T14:58:41.702Z,101591.22
2023-01-29T15:01:22.425Z,101638.69
2023-01-29T15:03:55.014Z,101649.13
2023-01-29T15:06:33.676Z,101631.81
2023-01-29T15:09:14.851Z,101639.59
2023-01-29T15:11:52.952Z,101638.81
2023-01-29T15:14:36.634Z,101644.13
2023-01-29T15:17:28.568Z,101636.38
2023-01-29T15:19:58.878Z,101632.72
2023-01-29T15:22:29.958Z,101634.78
2023-01-29T15:25:07.516Z,101631.13
2023-01-29T15:27:39.603Z,101629.88
2023-01-29T15:30:11.147Z,101608.22
2023-01-29T15:32:44.144Z,101629.88
2023-01-29T15:35:26.310Z,101634.78
2023-01-29T15:38:04.837Z,101573.28
2023-01-29T15:40:43.004Z,101628.88
2023-01-29T15:43:24.822Z,101614.16
2023-01-29T15:45:56.685Z,101637.69
2023-01-29T15:48:34.974Z,101643.81
2023-01-29T15:51:06.283Z,101644.63
2023-01-29T15:53:41.019Z,101640.13
2023-01-29T15:56:13.854Z,101641.16
2023-01-29T15:58:45.679Z,101644.41
2023-01-29T16:01:17.082Z,101640.09
2023-01-29T16:03:53.093Z,101639.50
2023-01-29T16:06:24.716Z,101624.59
2023-01-29T16:08:57.133Z,101640.31
2023-01-29T16:11:27.623Z,101640.09
2023-01-29T16:13:59.174Z,101632.34
2023-01-29T16:16:30.807Z,101631.94
2023-01-29T16:19:03.635Z,101631.75
2023-01-29T16:21:39.665Z,101617.66
2023-01-29T16:24:14.089Z,101630.16
2023-01-29T16:26:48.694Z,101624.63
2023-01-29T16:29:22.267Z,101621.38
2023-01-29T16:32:00.689Z,101626.91
2023-01-29T16:34:36.074Z,101638.94
2023-01-29T16:37:09.766Z,101631.59
2023-01-29T16:39:42.483Z,101632.41
2023-01-29T16:42:28.919Z,101616.47
2023-01-29T16:45:04.476Z,101628.50
2023-01-29T16:47:37.537Z,101623.19
2023-01-29T16:50:46.226Z,101624.63
2023-01-29T16:53:27.496Z,101625.66
2023-01-29T16:56:04.730Z,101621.78
2023-01-29T16:58:35.161Z,101621.97
2023-01-29T17:01:10.339Z,101620.13
2023-01-29T17:03:42.349Z,101615.25
2023-01-29T17:06:21.462Z,101609.94
2023-01-29T17:08:52.287Z,101622.56
2023-01-29T17:11:30.919Z,101603.56
2023-01-29T17:14:01.268Z,101607.84
2023-01-29T17:16:33.582Z,101591.09
2023-01-29T17:19:04.424Z,101602.53
2023-01-29T17:21:37.623Z,101609.72
2023-01-29T17:24:08.312Z,101608.06
2023-01-29T17:26:38.542Z,101612.34
2023-01-29T17:29:11.767Z,101608.25
2023-01-29T17:31:41.835Z,101576.53
2023-01-29T17:34:15.008Z,101621.34
2023-01-29T17:36:48.166Z,101622.75
2023-01-29T17:39:21.542Z,101634.38
2023-01-29T17:41:54.563Z,101633.13
2023-01-29T17:44:26.287Z,101630.03
2023-01-29T17:46:56.727Z,101605.03
2023-01-29T17:49:28.645Z,101635.44
2023-01-29T17:52:01.429Z,101638.31
2023-01-29T17:54:31.453Z,101637.00
2023-01-29T17:57:02.100Z,101636.59
2023-01-29T17:59:35.270Z,101638.91
2023-01-29T18:02:05.590Z,101645.44
2023-01-29T18:04:37.779Z,101634.63
2023-01-29T18:07:13.547Z,101642.16
2023-01-29T18:09:43.835Z,101615.69
2023-01-29T18:12:14.488Z,101629.03
2023-01-29T18:14:44.596Z,101602.41
2023-01-29T18:17:16.434Z,101633.34
2023-01-29T18:19:46.557Z,101627.22
2023-01-29T18:22:19.832Z,101639.63
2023-01-29T18:24:49.920Z,101630.19
2023-01-29T18:27:22.558Z,101639.53
2023-01-29T18:29:52.976Z,101642.88
2023-01-29T18:32:23.537Z,101645.84
2023-01-29T18:34:54.497Z,101646.09
2023-01-29T18:37:27.561Z,101638.88
2023-01-29T18:39:57.975Z,101645.00
2023-01-29T18:42:28.040Z,101650.84
2023-01-29T18:44:58.668Z,101643.00
2023-01-29T18:47:28.731Z,101648.34
2023-01-29T18:49:59.048Z,101628.13
2023-01-29T18:52:31.810Z,101636.88
2023-01-29T18:55:02.263Z,101639.28
2023-01-29T18:58:32.734Z,101630.47
2023-01-29T19:00:23.489Z,101639.56
2023-01-29T19:02:53.692Z,101640.38
2023-01-29T19:05:24.779Z,101618.31
2023-01-29T19:07:57.658Z,101639.00
2023-01-29T19:10:28.152Z,101578.56
2023-01-29T19:12:58.255Z,101643.25
2023-01-29T19:15:28.301Z,101631.19
2023-01-29T19:17:59.149Z,101622.47
2023-01-29T19:20:28.842Z,101621.72
2023-01-29T19:23:01.648Z,101621.31
2023-01-29T19:25:31.951Z,101630.28
2023-01-29T19:28:02.584Z,101630.69
2023-01-29T19:30:32.626Z,101630.28
2023-01-29T19:33:02.730Z,101630.94
2023-01-29T19:35:33.704Z,101634.50
2023-01-29T19:38:07.862Z,101618.78
2023-01-29T19:40:38.944Z,101624.47
2023-01-29T19:43:09.014Z,101628.13
2023-01-29T19:45:50.117Z,101600.47
2023-01-29T19:48:22.140Z,101625.88
2023-01-29T19:50:56.835Z,101629.91
2023-01-29T19:53:31.691Z,101628.19
2023-01-29T19:56:03.327Z,101634.81
2023-01-29T19:58:33.873Z,101629.78
2023-01-29T20:01:07.305Z,101635.31
2023-01-29T20:03:38.190Z,101637.09
2023-01-29T20:06:09.806Z,101639.59
2023-01-29T20:08:43.064Z,101640.25
2023-01-29T20:11:15.973Z,101639.59
2023-01-29T20:13:46.223Z,101643.75
2023-01-29T20:16:16.331Z,101646.72
2023-01-29T20:18:46.554Z,101652.00
2023-01-29T20:21:20.631Z,101589.41
2023-01-29T20:23:54.992Z,101645.44
2023-01-29T20:26:25.343Z,101644.34
2023-01-29T20:28:55.557Z,101649.81
2023-01-29T20:31:26.030Z,101643.69
2023-01-29T20:33:56.092Z,101645.91
2023-01-29T20:36:26.298Z,101646.13
2023-01-29T20:38:59.276Z,101649.66
2023-01-29T20:41:29.386Z,101634.69
2023-01-29T20:43:59.439Z,101638.69
2023-01-29T20:46:30.239Z,101629.75
2023-01-29T20:49:00.371Z,101640.84
2023-01-29T20:51:30.951Z,101651.06
2023-01-29T20:54:03.717Z,101646.97
2023-01-29T20:56:38.459Z,101643.88
2023-01-29T20:59:12.354Z,101651.63
2023-01-29T21:01:42.433Z,101649.28
2023-01-29T21:04:12.487Z,101659.19
2023-01-29T21:06:42.606Z,101662.16
2023-01-29T21:09:15.268Z,101664.25
2023-01-29T21:11:47.421Z,101656.75
2023-01-29T21:14:20.828Z,101651.44
2023-01-29T21:16:50.935Z,101655.81
2023-01-29T21:19:21.546Z,101643.84
2023-01-29T21:21:51.747Z,101650.84
2023-01-29T21:24:24.671Z,101633.19
2023-01-29T21:26:55.491Z,101641.56
2023-01-29T21:29:25.517Z,101650.19
2023-01-29T21:31:55.676Z,101646.66
2023-01-29T21:34:26.220Z,101641.38
2023-01-29T21:36:56.459Z,101649.72
2023-01-29T21:39:29.262Z,101646.50
2023-01-29T21:42:11.721Z,101647.78
2023-01-29T21:44:43.287Z,101646.28
2023-01-29T21:47:15.191Z,101635.69
2023-01-29T21:49:48.843Z,101639.47
2023-01-29T21:52:18.994Z,101631.16
2023-01-29T21:54:51.772Z,101638.78
2023-01-29T21:57:26.798Z,101642.19
2023-01-29T21:59:57.879Z,101626.69
2023-01-29T22:02:31.066Z,101633.03
2023-01-29T22:05:17.561Z,101633.44
2023-01-29T22:07:48.553Z,101621.75
2023-01-29T22:10:22.569Z,101621.28
2023-01-29T22:12:52.898Z,101621.94
2023-01-29T22:15:24.058Z,101612.09
2023-01-29T22:17:54.336Z,101616.22
2023-01-29T22:20:30.283Z,101611.63
2023-01-29T22:23:02.414Z,101610.38
2023-01-29T22:25:35.997Z,101614.84
2023-01-29T22:28:06.023Z,101613.00
2023-01-29T22:30:36.242Z,101604.38
2023-01-29T22:33:06.374Z,101551.13
2023-01-29T22:35:36.543Z,101603.28
2023-01-29T22:38:06.714Z,101606.47
2023-01-29T22:40:39.386Z,101610.84
2023-01-29T22:43:09.451Z,101605.06
2023-01-29T22:45:49.382Z,101604.28
2023-01-29T22:48:19.369Z,101588.84
2023-01-29T22:51:09.366Z,101563.47
2023-01-29T22:53:40.526Z,101584.53
2023-01-29T22:56:14.652Z,101577.84
2023-01-29T22:58:44.678Z,101583.72
2023-01-29T23:01:14.855Z,101580.69
2023-01-29T23:03:44.947Z,101580.88
2023-01-29T23:06:14.968Z,101572.16
2023-01-29T23:08:45.385Z,101579.50
2023-01-29T23:11:20.637Z,101583.03
2023-01-29T23:13:52.957Z,101586.66
2023-01-29T23:16:27.007Z,101538.75
2023-01-29T23:18:59.397Z,101558.59
2023-01-29T23:21:29.726Z,101573.16
2023-01-29T23:24:01.472Z,101572.34
2023-01-29T23:26:46.657Z,101567.44
2023-01-29T23:29:17.518Z,101565.13
2023-01-29T23:31:47.649Z,101533.88
2023-01-29T23:34:18.219Z,101556.53
2023-01-29T23:36:48.288Z,101551.91
2023-01-29T23:39:18.286Z,101549.06
2023-01-29T23:41:51.004Z,101547.22
2023-01-29T23:44:23.931Z,101533.81
2023-01-29T23:46:54.108Z,101522.16
2023-01-29T23:49:24.367Z,101528.59
2023-01-29T23:51:54.592Z,101545.38
2023-01-29T23:54:24.911Z,101535.63
2023-01-29T23:56:57.847Z,101520.78
2023-01-29T23:59:30.217Z,101524.91
